Letterkenny, Ireland
Current Conditions -  °F | °C
As of 9:50 AM on Friday 24 Oct 2014 (Local Time) from EGAE Reporting Station
Few Clouds Few Clouds  
Wind Chill: 50°   Ceiling: Unl
Heat Index: 50°   Visibility: 6mi
Dew Point: 45°   Wind: 15mph
Humidity: 82%   Direction: 210°SSW
Pressure: 29.74"   Gusts: NA
Location:  54.94°N, 7.74°W
Report Text: EGAE 240950Z 21013KT 9999 FEW015 10/07 Q1007
Loading
Personal Weather Stations






























Interactive Weather Map New forecast layout! Learn more

10-Day Weather Forecast

Advertisements
Track Severe Weather on mobile